createdAt,value
2018-11-25T06:37:46.702Z,40.52
2018-11-25T06:40:44.560Z,37.50
2018-11-25T06:43:40.897Z,37.83
2018-11-25T06:46:44.426Z,38.17
2018-11-25T06:49:46.055Z,37.63
2018-11-25T06:52:50.772Z,38.58
2018-11-25T06:55:55.760Z,35.55
2018-11-25T06:58:56.619Z,36.98
2018-11-25T07:02:04.373Z,36.90
2018-11-25T07:05:00.611Z,36.83
2018-11-25T07:07:56.557Z,36.88
2018-11-25T07:10:52.983Z,34.65
2018-11-25T07:13:48.810Z,35.83
2018-11-25T07:16:45.190Z,35.98
2018-11-25T07:19:41.167Z,34.88
2018-11-25T07:22:37.168Z,36.35
2018-11-25T07:25:33.224Z,34.05
2018-11-25T07:28:29.286Z,34.85
2018-11-25T07:31:25.585Z,35.20
2018-11-25T07:34:21.978Z,34.85
2018-11-25T07:37:18.388Z,34.45
2018-11-25T07:40:19.246Z,34.18
2018-11-25T07:43:15.725Z,35.10
2018-11-25T07:46:12.034Z,32.50
2018-11-25T07:49:08.817Z,33.78
2018-11-25T07:52:05.215Z,33.28
2018-11-25T07:55:05.748Z,32.40
2018-11-25T07:58:02.630Z,32.23
2018-11-25T08:00:58.885Z,32.38
2018-11-25T08:03:54.841Z,31.50
2018-11-25T08:06:51.201Z,31.23
2018-11-25T08:09:50.860Z,32.08
2018-11-25T08:12:46.912Z,31.57
2018-11-25T08:15:43.176Z,31.77
2018-11-25T08:18:39.081Z,31.40
2018-11-25T08:21:35.913Z,31.93
2018-11-25T08:24:32.697Z,31.27
2018-11-25T08:27:29.518Z,29.67
2018-11-25T08:30:27.830Z,31.02
2018-11-25T08:33:24.917Z,28.95
2018-11-25T08:36:22.790Z,29.57
2018-11-25T08:39:19.019Z,30.05
2018-11-25T08:42:15.838Z,29.50
2018-11-25T08:45:13.599Z,29.75
2018-11-25T08:48:09.656Z,28.12
2018-11-25T08:51:05.909Z,29.63
2018-11-25T08:54:02.001Z,29.72
2018-11-25T08:56:58.540Z,28.57
2018-11-25T08:59:54.880Z,27.82
2018-11-25T09:02:51.228Z,29.55
2018-11-25T09:05:47.799Z,28.12
2018-11-25T09:08:44.305Z,27.42
2018-11-25T09:11:40.715Z,27.25
2018-11-25T09:14:37.105Z,28.30
2018-11-25T09:17:33.382Z,26.77
2018-11-25T09:20:30.365Z,27.35
2018-11-25T09:23:26.383Z,28.17
2018-11-25T09:26:22.683Z,27.52
2018-11-25T09:29:18.767Z,27.25
2018-11-25T09:32:22.732Z,27.70
2018-11-25T09:35:12.659Z,26.95
2018-11-25T09:38:09.211Z,27.48
2018-11-25T09:41:05.787Z,26.12
2018-11-25T09:44:03.093Z,25.37
2018-11-25T09:47:00.399Z,26.07
2018-11-25T09:49:57.011Z,27.40
2018-11-25T09:52:53.846Z,26.30
2018-11-25T09:55:50.148Z,27.00
2018-11-25T09:58:46.844Z,25.72
2018-11-25T10:01:43.558Z,25.60
2018-11-25T10:04:40.180Z,26.65
2018-11-25T10:07:36.506Z,25.40
2018-11-25T10:10:33.300Z,25.35
2018-11-25T10:13:29.811Z,26.20
2018-11-25T10:16:27.038Z,25.25
2018-11-25T10:19:23.222Z,24.45
2018-11-25T10:22:19.535Z,25.75
2018-11-25T10:25:20.238Z,23.83
2018-11-25T10:28:16.365Z,24.23
2018-11-25T10:31:13.130Z,24.57
2018-11-25T10:34:09.395Z,23.70
2018-11-25T10:37:05.343Z,23.67
2018-11-25T10:40:02.553Z,23.85
2018-11-25T10:42:58.630Z,24.05
2018-11-25T10:45:55.258Z,23.92
2018-11-25T10:48:51.726Z,23.52
2018-11-25T10:51:48.099Z,22.73
2018-11-25T10:54:44.266Z,23.27
2018-11-25T10:57:40.381Z,22.32
2018-11-25T11:00:54.242Z,23.62
2018-11-25T11:04:00.852Z,23.67
2018-11-25T11:07:13.639Z,22.48
2018-11-25T11:10:13.783Z,22.70
2018-11-25T11:13:10.582Z,23.38
2018-11-25T11:16:06.932Z,22.40
2018-11-25T11:19:03.140Z,23.45
2018-11-25T11:21:59.375Z,23.40
2018-11-25T11:24:55.983Z,24.25
2018-11-25T11:27:52.163Z,23.25
2018-11-25T11:30:48.278Z,23.73
2018-11-25T11:33:44.492Z,22.85
2018-11-25T11:36:40.639Z,23.25
2018-11-25T11:39:38.074Z,22.67
2018-11-25T11:42:35.055Z,22.62
2018-11-25T11:45:31.176Z,23.42
2018-11-25T11:48:28.169Z,24.18
2018-11-25T11:51:25.664Z,23.95
2018-11-25T11:54:20.891Z,22.22
2018-11-25T11:57:17.113Z,22.70
2018-11-25T12:00:33.350Z,22.40
2018-11-25T12:03:29.403Z,22.73
2018-11-25T12:06:25.769Z,21.23
2018-11-25T12:09:22.744Z,20.90
2018-11-25T12:12:19.214Z,22.60
2018-11-25T12:15:35.510Z,21.23
2018-11-25T12:18:31.738Z,21.95
2018-11-25T12:21:27.714Z,22.48
2018-11-25T12:24:24.065Z,22.13
2018-11-25T12:27:20.438Z,21.40
2018-11-25T12:30:20.675Z,21.40
2018-11-25T12:33:17.417Z,21.10
2018-11-25T12:36:14.054Z,21.77
2018-11-25T12:39:12.452Z,20.97
2018-11-25T12:42:08.829Z,21.48
2018-11-25T12:45:05.184Z,21.95
2018-11-25T12:48:01.762Z,22.27
2018-11-25T12:50:57.947Z,22.27
2018-11-25T12:53:53.997Z,22.55
2018-11-25T12:56:51.781Z,22.55
2018-11-25T12:59:46.459Z,23.22
2018-11-25T13:02:46.217Z,21.87
2018-11-25T13:05:46.267Z,23.70
2018-11-25T13:08:39.868Z,24.20
2018-11-25T13:11:35.806Z,22.80
2018-11-25T13:14:32.186Z,24.35
2018-11-25T13:17:28.769Z,22.98
2018-11-25T13:20:25.602Z,22.55
2018-11-25T13:23:22.107Z,24.57
2018-11-25T13:26:18.287Z,23.52
2018-11-25T13:29:14.858Z,23.07
2018-11-25T13:32:10.694Z,25.12
2018-11-25T13:35:07.127Z,23.20
2018-11-25T13:38:04.008Z,24.92
2018-11-25T13:41:01.639Z,24.50
2018-11-25T13:43:58.235Z,22.45
2018-11-25T13:46:54.814Z,22.90
2018-11-25T13:49:51.519Z,26.10
2018-11-25T13:52:47.788Z,25.27
2018-11-25T13:55:43.737Z,25.30
2018-11-25T13:58:40.194Z,25.00
2018-11-25T14:01:37.147Z,24.18
2018-11-25T14:04:33.166Z,23.90
2018-11-25T14:07:29.684Z,26.52
2018-11-25T14:10:30.715Z,30.52
2018-11-25T14:13:26.795Z,39.65
2018-11-25T14:16:25.072Z,51.77
2018-11-25T14:19:21.234Z,43.68
2018-11-25T14:22:17.670Z,47.62
2018-11-25T14:25:18.633Z,39.27
2018-11-25T14:28:16.980Z,40.25
2018-11-25T14:31:13.323Z,39.30
2018-11-25T14:34:09.997Z,38.35
2018-11-25T14:37:06.444Z,41.48
2018-11-25T14:40:02.524Z,41.98
2018-11-25T14:42:59.061Z,44.00
2018-11-25T14:45:54.967Z,48.02
2018-11-25T14:48:50.977Z,46.18
2018-11-25T14:51:47.083Z,44.50
2018-11-25T14:54:50.958Z,44.45
2018-11-25T14:57:39.155Z,44.10
2018-11-25T15:00:35.060Z,42.85
2018-11-25T15:03:31.165Z,44.83
2018-11-25T15:06:29.493Z,44.93
2018-11-25T15:09:23.873Z,45.63
2018-11-25T15:12:19.911Z,45.17
2018-11-25T15:15:17.820Z,46.58
2018-11-25T15:18:14.341Z,48.13
2018-11-25T15:21:11.059Z,47.00
2018-11-25T15:24:08.401Z,45.92
2018-11-25T15:27:05.188Z,44.55
2018-11-25T15:30:01.592Z,46.98
2018-11-25T15:32:58.049Z,49.23
2018-11-25T15:35:54.214Z,48.65
2018-11-25T15:38:50.369Z,48.70
2018-11-25T15:41:47.171Z,48.75
2018-11-25T15:44:43.759Z,50.60
2018-11-25T15:47:40.760Z,53.20
2018-11-25T15:50:37.390Z,52.20
2018-11-25T15:53:34.012Z,52.70
2018-11-25T15:56:31.851Z,53.20
2018-11-25T15:59:27.672Z,51.45
2018-11-25T16:02:24.251Z,51.83
2018-11-25T16:05:24.725Z,49.85
2018-11-25T16:08:21.352Z,51.88
2018-11-25T16:11:18.182Z,51.28
2018-11-25T16:14:14.363Z,52.58
2018-11-25T16:17:10.647Z,50.95
2018-11-25T16:20:07.009Z,48.95
2018-11-25T16:23:13.841Z,50.10
2018-11-25T16:26:13.870Z,50.45
2018-11-25T16:29:18.342Z,49.73
2018-11-25T16:32:14.970Z,50.52
2018-11-25T16:35:14.871Z,49.73
2018-11-25T16:38:11.481Z,51.15
2018-11-25T16:41:08.076Z,48.92
2018-11-25T16:44:04.620Z,47.83
2018-11-25T16:47:01.246Z,48.40
2018-11-25T16:49:58.337Z,48.23
2018-11-25T16:52:55.362Z,48.92
2018-11-25T16:55:51.661Z,48.87
2018-11-25T16:58:48.130Z,51.18
2018-11-25T17:01:44.967Z,51.73
2018-11-25T17:04:42.111Z,50.98
2018-11-25T17:07:38.525Z,50.60
2018-11-25T17:10:35.283Z,50.05
2018-11-25T17:13:31.828Z,51.95
2018-11-25T17:16:36.787Z,50.52
2018-11-25T17:19:34.366Z,49.10
2018-11-25T17:22:34.075Z,49.42
2018-11-25T17:25:27.436Z,48.85
2018-11-25T17:28:23.677Z,50.88
2018-11-25T17:31:19.740Z,50.48
2018-11-25T17:34:15.987Z,49.70
2018-11-25T17:37:12.521Z,50.05
2018-11-25T17:40:08.666Z,50.23
2018-11-25T17:43:04.736Z,48.33
2018-11-25T17:46:04.112Z,50.95
2018-11-25T17:48:59.870Z,48.33
2018-11-25T17:52:00.237Z,48.55
2018-11-25T17:54:56.386Z,48.05
2018-11-25T17:57:55.135Z,47.67
2018-11-25T18:01:04.846Z,48.73
2018-11-25T18:04:04.583Z,49.23
2018-11-25T18:07:00.578Z,49.08
2018-11-25T18:09:56.951Z,47.50
2018-11-25T18:12:53.752Z,48.58
2018-11-25T18:15:53.988Z,48.83
2018-11-25T18:19:24.368Z,46.05
2018-11-25T18:22:23.877Z,49.40
2018-11-25T18:25:23.331Z,47.58
2018-11-25T18:28:16.957Z,49.80
2018-11-25T18:31:14.071Z,49.08
2018-11-25T18:34:10.717Z,49.58
2018-11-25T18:37:07.546Z,47.58
2018-11-25T18:40:03.791Z,48.33
2018-11-25T18:43:00.247Z,45.43
2018-11-25T18:46:01.174Z,46.75
2018-11-25T18:48:57.902Z,47.03
2018-11-25T18:51:54.301Z,47.70
2018-11-25T18:54:52.325Z,47.62
2018-11-25T18:57:50.199Z,47.73
2018-11-25T19:00:55.264Z,45.15
2018-11-25T19:03:52.288Z,47.98
2018-11-25T19:06:48.362Z,45.50
2018-11-25T19:09:44.360Z,46.60
2018-11-25T19:12:44.365Z,47.93
2018-11-25T19:15:37.390Z,46.68
2018-11-25T19:18:33.642Z,46.45
2018-11-25T19:21:33.063Z,47.00
2018-11-25T19:24:29.283Z,46.13
2018-11-25T19:27:25.725Z,45.90
2018-11-25T19:30:26.710Z,47.13
2018-11-25T19:33:18.720Z,46.90
2018-11-25T19:36:15.269Z,45.50
2018-11-25T19:39:13.363Z,45.85
2018-11-25T19:42:10.296Z,46.90
2018-11-25T19:45:09.917Z,45.98
2018-11-25T19:48:06.593Z,45.25
2018-11-25T19:51:02.912Z,45.85
2018-11-25T19:53:59.288Z,44.20
2018-11-25T19:56:58.571Z,46.02
2018-11-25T19:59:54.936Z,44.05
2018-11-25T20:02:51.966Z,46.33
2018-11-25T20:05:48.430Z,45.58
2018-11-25T20:08:44.947Z,45.17
2018-11-25T20:11:41.792Z,44.05
2018-11-25T20:14:37.963Z,45.55
2018-11-25T20:17:34.956Z,44.03
2018-11-25T20:20:32.027Z,45.85
2018-11-25T20:23:28.181Z,44.10
2018-11-25T20:26:24.422Z,45.63
2018-11-25T20:29:23.865Z,44.18
2018-11-25T20:32:36.506Z,41.73
2018-11-25T20:35:33.361Z,44.05
2018-11-25T20:38:46.314Z,45.55
2018-11-25T20:41:42.650Z,44.88
2018-11-25T20:44:39.621Z,42.27
2018-11-25T20:47:39.534Z,44.70
2018-11-25T20:50:35.741Z,43.58
2018-11-25T20:53:48.647Z,42.45
2018-11-25T20:56:44.949Z,42.27
2018-11-25T20:59:41.273Z,42.23
2018-11-25T21:02:38.289Z,43.92
2018-11-25T21:05:34.450Z,44.65
2018-11-25T21:08:30.805Z,46.25
2018-11-25T21:11:27.460Z,47.05
2018-11-25T21:14:23.717Z,48.10
2018-11-25T21:17:19.956Z,50.00
2018-11-25T21:20:23.014Z,50.28
2018-11-25T21:23:19.047Z,49.15
2018-11-25T21:26:16.017Z,48.63
2018-11-25T21:29:12.636Z,51.63
2018-11-25T21:32:09.012Z,50.58
2018-11-25T21:35:05.993Z,52.15
2018-11-25T21:38:02.696Z,52.50
2018-11-25T21:40:59.163Z,53.55
2018-11-25T21:43:55.082Z,52.62
2018-11-25T21:46:51.201Z,50.65
2018-11-25T21:49:51.368Z,55.20
2018-11-25T21:52:47.904Z,51.92
2018-11-25T21:55:44.347Z,53.17
2018-11-25T21:58:40.938Z,54.35
2018-11-25T22:01:40.507Z,53.65
2018-11-25T22:04:36.864Z,55.52
2018-11-25T22:07:33.054Z,57.50
2018-11-25T22:10:33.380Z,56.05
2018-11-25T22:13:26.654Z,57.67
2018-11-25T22:16:23.187Z,57.93
2018-11-25T22:19:18.996Z,60.25
2018-11-25T22:22:15.202Z,59.20
2018-11-25T22:25:16.053Z,59.23
2018-11-25T22:28:14.752Z,57.45
2018-11-25T22:31:08.736Z,61.28
2018-11-25T22:34:04.934Z,62.45
2018-11-25T22:37:01.270Z,61.63
2018-11-25T22:39:57.445Z,60.35
2018-11-25T22:42:56.680Z,63.90
2018-11-25T22:45:52.940Z,60.00
2018-11-25T22:48:48.891Z,63.40
2018-11-25T22:51:45.120Z,64.82
2018-11-25T22:54:41.572Z,63.38
2018-11-25T22:57:37.901Z,64.72
2018-11-25T23:00:41.221Z,64.45
2018-11-25T23:03:37.602Z,65.20
2018-11-25T23:07:19.126Z,62.38
2018-11-25T23:10:15.453Z,65.90
2018-11-25T23:13:12.063Z,66.65
2018-11-25T23:16:08.297Z,65.42
2018-11-25T23:19:04.500Z,67.40
2018-11-25T23:22:00.665Z,68.33
2018-11-25T23:24:57.255Z,66.47
2018-11-25T23:27:53.929Z,67.67
2018-11-25T23:30:50.928Z,68.78
2018-11-25T23:33:49.272Z,65.62
2018-11-25T23:36:45.606Z,67.60
2018-11-25T23:39:41.851Z,69.87
2018-11-25T23:42:38.120Z,66.12
2018-11-25T23:45:34.739Z,67.60
2018-11-25T23:48:31.550Z,66.10
2018-11-25T23:51:30.241Z,67.85
2018-11-25T23:54:26.498Z,68.30
2018-11-25T23:57:23.234Z,68.22
